createdAt,value
2022-10-06T00:01:42.214Z,6.03
2022-10-06T00:04:09.995Z,7.30
2022-10-06T00:06:37.121Z,7.27
2022-10-06T00:09:04.230Z,8.80
2022-10-06T00:11:31.337Z,6.60
2022-10-06T00:13:58.433Z,5.72
2022-10-06T00:16:25.613Z,5.95
2022-10-06T00:18:52.682Z,7.25
2022-10-06T00:21:19.858Z,5.82
2022-10-06T00:23:46.939Z,6.20
2022-10-06T00:26:16.856Z,6.47
2022-10-06T00:28:45.084Z,6.60
2022-10-06T00:31:12.213Z,6.70
2022-10-06T00:33:39.379Z,6.38
2022-10-06T00:36:07.430Z,8.27
2022-10-06T00:38:34.637Z,6.35
2022-10-06T00:41:01.712Z,6.85
2022-10-06T00:43:48.340Z,7.03
2022-10-06T00:46:15.630Z,7.63
2022-10-06T00:48:43.899Z,5.95
2022-10-06T00:51:11.062Z,6.05
2022-10-06T00:53:38.174Z,6.78
2022-10-06T00:56:05.287Z,6.63
2022-10-06T00:58:32.466Z,5.63
2022-10-06T01:01:00.359Z,6.38
2022-10-06T01:03:36.099Z,5.88
2022-10-06T01:06:03.886Z,6.50
2022-10-06T01:08:32.036Z,5.80
2022-10-06T01:10:59.298Z,6.30
2022-10-06T01:13:27.642Z,7.13
2022-10-06T01:16:00.329Z,5.63
2022-10-06T01:18:28.788Z,5.70
2022-10-06T01:21:05.433Z,6.47
2022-10-06T01:23:34.078Z,6.00
2022-10-06T01:26:03.156Z,5.43
2022-10-06T01:28:30.693Z,5.05
2022-10-06T01:31:01.483Z,5.67
2022-10-06T01:33:29.878Z,4.85
2022-10-06T01:35:57.278Z,5.50
2022-10-06T01:38:24.670Z,5.00
2022-10-06T01:40:53.014Z,5.13
2022-10-06T01:43:20.330Z,5.90
2022-10-06T01:45:54.163Z,5.27
2022-10-06T01:48:21.278Z,5.43
2022-10-06T01:50:48.330Z,4.70
2022-10-06T01:53:15.341Z,5.40
2022-10-06T01:55:42.463Z,4.90
2022-10-06T01:58:10.294Z,4.80
2022-10-06T02:00:37.662Z,4.57
2022-10-06T02:03:05.210Z,4.57
2022-10-06T02:05:32.411Z,8.03
2022-10-06T02:07:59.426Z,5.63
2022-10-06T02:10:26.494Z,7.07
2022-10-06T02:12:53.686Z,5.38
2022-10-06T02:15:21.203Z,4.78
2022-10-06T02:17:48.714Z,5.40
2022-10-06T02:20:16.218Z,6.57
2022-10-06T02:22:43.791Z,4.30
2022-10-06T02:25:12.006Z,4.68
2022-10-06T02:27:39.573Z,4.35
2022-10-06T02:30:07.853Z,4.95
2022-10-06T02:32:36.978Z,4.40
2022-10-06T02:35:04.705Z,4.40
2022-10-06T02:37:31.814Z,4.20
2022-10-06T02:39:58.883Z,4.78
2022-10-06T02:42:25.962Z,5.80
2022-10-06T02:44:53.913Z,4.88
2022-10-06T02:47:22.622Z,4.50
2022-10-06T02:49:50.113Z,4.40
2022-10-06T02:52:17.276Z,4.88
2022-10-06T02:54:43.919Z,4.25
2022-10-06T02:57:11.002Z,4.63
2022-10-06T02:59:38.060Z,4.95
2022-10-06T03:02:05.252Z,4.75
2022-10-06T03:04:32.587Z,4.38
2022-10-06T03:06:59.701Z,3.85
2022-10-06T03:09:26.826Z,4.28
2022-10-06T03:11:54.053Z,4.03
2022-10-06T03:14:22.195Z,4.65
2022-10-06T03:16:51.797Z,4.10
2022-10-06T03:19:18.936Z,4.25
2022-10-06T03:21:46.730Z,5.22
2022-10-06T03:24:14.209Z,4.15
2022-10-06T03:26:42.829Z,4.82
2022-10-06T03:29:11.820Z,5.00
2022-10-06T03:31:40.010Z,6.03
2022-10-06T03:34:07.284Z,4.30
2022-10-06T03:36:35.109Z,5.72
2022-10-06T03:39:02.948Z,5.13
2022-10-06T03:41:31.702Z,5.80
2022-10-06T03:43:59.397Z,5.18
2022-10-06T03:46:27.968Z,5.60
2022-10-06T03:48:55.493Z,5.03
2022-10-06T03:51:27.125Z,7.13
2022-10-06T03:53:54.801Z,5.50
2022-10-06T03:56:24.036Z,4.50
2022-10-06T03:58:55.485Z,4.70
2022-10-06T04:01:26.484Z,6.43
2022-10-06T04:03:55.363Z,5.00
2022-10-06T04:06:22.800Z,3.73
2022-10-06T04:08:50.845Z,4.47
2022-10-06T04:11:20.205Z,4.20
2022-10-06T04:13:47.960Z,4.25
2022-10-06T04:16:17.033Z,4.45
2022-10-06T04:18:45.027Z,4.35
2022-10-06T04:21:12.959Z,4.60
2022-10-06T04:23:40.292Z,6.27
2022-10-06T04:26:09.754Z,8.30
2022-10-06T04:28:38.142Z,7.40
2022-10-06T04:31:06.216Z,6.55
2022-10-06T04:33:34.203Z,7.63
2022-10-06T04:36:02.464Z,7.17
2022-10-06T04:38:30.453Z,6.03
2022-10-06T04:40:57.771Z,7.70
2022-10-06T04:43:24.957Z,6.07
2022-10-06T04:45:59.975Z,5.40
2022-10-06T04:48:28.042Z,5.63
2022-10-06T04:50:56.196Z,5.30
2022-10-06T04:53:23.428Z,7.40
2022-10-06T04:55:58.556Z,6.15
2022-10-06T04:58:25.887Z,6.07
2022-10-06T05:00:53.254Z,7.45
2022-10-06T05:03:20.021Z,6.07
2022-10-06T05:05:47.108Z,7.33
2022-10-06T05:08:14.156Z,6.20
2022-10-06T05:10:42.037Z,6.13
2022-10-06T05:13:12.654Z,5.05
2022-10-06T05:15:39.800Z,6.53
2022-10-06T05:18:06.906Z,5.78
2022-10-06T05:20:34.049Z,5.13
2022-10-06T05:23:01.154Z,6.38
2022-10-06T05:25:28.210Z,5.73
2022-10-06T05:27:55.431Z,5.40
2022-10-06T05:30:22.522Z,5.93
2022-10-06T05:32:50.471Z,6.47
2022-10-06T05:35:17.610Z,7.30
2022-10-06T05:37:44.677Z,8.10
2022-10-06T05:40:11.821Z,9.43
2022-10-06T05:42:38.922Z,10.10
2022-10-06T05:45:06.185Z,12.10
2022-10-06T05:47:33.245Z,10.13
2022-10-06T05:50:00.466Z,10.20
2022-10-06T05:52:27.592Z,10.43
2022-10-06T05:54:54.647Z,9.13
2022-10-06T05:57:21.770Z,9.60
2022-10-06T05:59:48.826Z,9.95
2022-10-06T06:02:15.897Z,10.07
2022-10-06T06:04:43.140Z,10.85
2022-10-06T06:07:10.295Z,12.13
2022-10-06T06:09:37.513Z,9.68
2022-10-06T06:12:04.713Z,9.30
2022-10-06T06:14:51.670Z,10.73
2022-10-06T06:17:18.770Z,7.22
2022-10-06T06:19:45.876Z,8.57
2022-10-06T06:22:12.968Z,10.60
2022-10-06T06:24:40.037Z,10.57
2022-10-06T06:27:07.170Z,10.45
2022-10-06T06:29:34.323Z,8.07
2022-10-06T06:32:01.460Z,8.40
2022-10-06T06:34:29.046Z,9.52
2022-10-06T06:37:01.193Z,7.28
2022-10-06T06:39:32.431Z,7.70
2022-10-06T06:42:01.973Z,9.00
2022-10-06T06:44:30.071Z,7.13
2022-10-06T06:46:57.297Z,8.77
2022-10-06T06:49:24.776Z,7.45
2022-10-06T06:51:52.584Z,8.10
2022-10-06T06:54:19.649Z,8.43
2022-10-06T06:56:48.672Z,8.93
2022-10-06T06:59:17.465Z,9.88
2022-10-06T07:01:45.722Z,9.30
2022-10-06T07:04:13.833Z,10.32
2022-10-06T07:06:41.100Z,8.18
2022-10-06T07:09:09.745Z,8.43
2022-10-06T07:11:38.888Z,9.65
2022-10-06T07:14:07.231Z,9.98
2022-10-06T07:16:54.514Z,10.02
2022-10-06T07:19:42.018Z,7.88
2022-10-06T07:22:28.972Z,7.70
2022-10-06T07:25:14.947Z,4.47
2022-10-06T07:27:42.238Z,4.07
2022-10-06T07:30:11.384Z,4.72
2022-10-06T07:32:38.781Z,3.25
2022-10-06T07:35:06.555Z,4.03
2022-10-06T07:37:35.520Z,2.27
2022-10-06T07:40:02.679Z,2.60
2022-10-06T07:42:29.371Z,1.90
2022-10-06T07:45:15.952Z,3.40
2022-10-06T07:47:42.995Z,2.77
2022-10-06T07:50:13.023Z,1.95
2022-10-06T07:52:40.151Z,2.60
2022-10-06T07:55:07.456Z,2.50
2022-10-06T07:57:35.538Z,2.33
2022-10-06T08:00:05.475Z,3.53
2022-10-06T08:02:35.557Z,3.92
2022-10-06T08:05:03.905Z,4.57
2022-10-06T08:07:30.980Z,3.07
2022-10-06T08:09:58.088Z,4.38
2022-10-06T08:12:40.701Z,1.83
2022-10-06T08:15:11.275Z,2.20
2022-10-06T08:17:38.750Z,2.35
2022-10-06T08:20:06.908Z,2.93
2022-10-06T08:22:34.289Z,1.75
2022-10-06T08:25:07.675Z,1.40
2022-10-06T08:27:35.568Z,1.92
2022-10-06T08:30:03.275Z,3.15
2022-10-06T08:32:30.353Z,2.30
2022-10-06T08:34:58.094Z,3.25
2022-10-06T08:37:27.312Z,3.35
2022-10-06T08:39:55.077Z,1.45
2022-10-06T08:42:32.065Z,2.57
2022-10-06T08:45:01.197Z,2.42
2022-10-06T08:47:30.239Z,2.25
2022-10-06T08:49:58.088Z,2.03
2022-10-06T08:52:41.356Z,2.37
2022-10-06T08:55:23.853Z,3.50
2022-10-06T08:57:51.977Z,3.15
2022-10-06T09:00:22.028Z,2.90
2022-10-06T09:02:50.034Z,2.60
2022-10-06T09:05:25.566Z,2.67
2022-10-06T09:08:06.226Z,2.60
2022-10-06T09:10:40.647Z,2.42
2022-10-06T09:13:12.359Z,2.22
2022-10-06T09:15:39.552Z,2.60
2022-10-06T09:18:10.674Z,1.25
2022-10-06T09:20:44.672Z,3.28
2022-10-06T09:23:15.769Z,1.90
2022-10-06T09:25:42.901Z,2.00
2022-10-06T09:28:15.727Z,4.28
2022-10-06T09:30:43.487Z,2.13
2022-10-06T09:33:16.925Z,1.90
2022-10-06T09:36:08.865Z,2.33
2022-10-06T09:38:54.086Z,1.70
2022-10-06T09:41:23.833Z,1.42
2022-10-06T09:43:53.312Z,2.30
2022-10-06T09:46:21.929Z,1.17
2022-10-06T09:48:48.969Z,1.35
2022-10-06T09:51:17.776Z,0.88
2022-10-06T09:54:00.372Z,1.85
2022-10-06T09:56:27.588Z,1.05
2022-10-06T09:58:56.452Z,1.17
2022-10-06T10:01:25.434Z,1.42
2022-10-06T10:04:18.804Z,2.13
2022-10-06T10:06:41.909Z,1.92
2022-10-06T10:09:26.488Z,2.05
2022-10-06T10:12:22.733Z,2.40
2022-10-06T10:14:49.827Z,2.95
2022-10-06T10:17:20.119Z,1.85
2022-10-06T10:19:53.117Z,1.83
2022-10-06T10:22:37.401Z,2.00
2022-10-06T10:25:10.261Z,3.10
2022-10-06T10:27:46.548Z,2.15
2022-10-06T10:30:14.695Z,2.03
2022-10-06T10:33:02.005Z,2.53
2022-10-06T10:35:32.604Z,2.53
2022-10-06T10:38:05.641Z,1.80
2022-10-06T10:40:43.105Z,1.85
2022-10-06T10:43:30.147Z,2.30
2022-10-06T10:46:02.584Z,3.25
2022-10-06T10:48:36.576Z,1.75
2022-10-06T10:51:20.108Z,1.67
2022-10-06T10:53:49.671Z,1.88
2022-10-06T10:56:19.728Z,1.93
2022-10-06T10:58:49.831Z,1.15
2022-10-06T11:01:36.865Z,3.20
2022-10-06T11:04:04.139Z,2.42
2022-10-06T11:06:32.209Z,2.75
2022-10-06T11:08:59.307Z,3.17
2022-10-06T11:11:27.615Z,2.67
2022-10-06T11:13:55.331Z,0.82
2022-10-06T11:16:29.638Z,2.08
2022-10-06T11:19:16.768Z,2.20
2022-10-06T11:21:52.000Z,3.58
2022-10-06T11:24:25.974Z,1.60
2022-10-06T11:27:02.902Z,2.20
2022-10-06T11:29:36.072Z,1.77
2022-10-06T11:32:03.176Z,2.47
2022-10-06T11:34:30.335Z,1.65
2022-10-06T11:37:12.940Z,2.47
2022-10-06T11:39:51.217Z,1.92
2022-10-06T11:42:20.347Z,6.00
2022-10-06T11:44:50.912Z,2.80
2022-10-06T11:47:34.360Z,2.55
2022-10-06T11:50:02.755Z,2.50
2022-10-06T11:52:29.819Z,2.30
2022-10-06T11:55:06.939Z,2.70
2022-10-06T11:57:34.513Z,3.20
2022-10-06T12:00:09.156Z,2.17
2022-10-06T12:02:37.736Z,2.70
2022-10-06T12:08:13.225Z,2.30
2022-10-06T12:10:48.900Z,2.70
2022-10-06T12:19:25.874Z,2.00
2022-10-06T12:22:20.021Z,2.17
2022-10-06T12:24:58.877Z,3.22
2022-10-06T12:27:30.877Z,2.20
2022-10-06T12:30:01.172Z,2.08
2022-10-06T12:32:49.335Z,2.03
2022-10-06T12:35:24.619Z,2.88
2022-10-06T12:37:54.949Z,1.93
2022-10-06T12:40:41.011Z,2.70
2022-10-06T12:43:17.355Z,2.10
2022-10-06T12:45:46.396Z,2.92
2022-10-06T12:48:17.442Z,3.20
2022-10-06T12:50:45.186Z,1.70
2022-10-06T12:53:16.942Z,2.30
2022-10-06T12:55:52.990Z,1.90
2022-10-06T12:58:21.637Z,1.92
2022-10-06T13:00:49.220Z,2.20
2022-10-06T13:03:24.046Z,1.70
2022-10-06T13:05:57.740Z,1.88
2022-10-06T13:08:27.443Z,2.67
2022-10-06T13:11:29.790Z,2.60
2022-10-06T13:13:59.157Z,1.70
2022-10-06T13:16:29.830Z,1.95
2022-10-06T13:18:58.927Z,1.50
2022-10-06T13:21:28.880Z,2.20
2022-10-06T13:23:56.100Z,3.08
2022-10-06T13:26:27.639Z,2.13
2022-10-06T13:28:55.672Z,3.30
2022-10-06T13:31:27.303Z,1.52
2022-10-06T13:33:54.465Z,1.55
2022-10-06T13:36:23.407Z,1.80
2022-10-06T13:38:50.974Z,2.10
2022-10-06T13:41:21.802Z,2.27
2022-10-06T13:43:52.053Z,2.20
2022-10-06T13:46:21.381Z,2.40
2022-10-06T13:48:54.269Z,2.47
2022-10-06T13:51:23.892Z,2.35
2022-10-06T13:53:51.968Z,3.10
2022-10-06T13:56:36.282Z,2.67
2022-10-06T13:59:23.311Z,3.55
2022-10-06T14:01:50.457Z,2.30
2022-10-06T14:04:18.973Z,2.30
2022-10-06T14:06:48.164Z,2.13
2022-10-06T14:09:19.824Z,2.13
2022-10-06T14:11:47.017Z,2.88
2022-10-06T14:14:17.828Z,2.28
2022-10-06T14:16:49.432Z,2.40
2022-10-06T14:19:30.349Z,2.35
2022-10-06T14:21:57.460Z,3.30
2022-10-06T14:24:28.258Z,1.70
2022-10-06T14:27:00.519Z,1.90
2022-10-06T14:29:27.597Z,3.80
2022-10-06T14:31:54.357Z,2.30
2022-10-06T14:34:22.690Z,2.13
2022-10-06T14:36:51.691Z,2.72
2022-10-06T14:39:18.980Z,1.23
2022-10-06T14:41:46.441Z,1.75
2022-10-06T14:44:15.504Z,1.60
2022-10-06T14:46:44.292Z,2.97
2022-10-06T14:49:13.358Z,2.35
2022-10-06T14:51:40.939Z,2.35
2022-10-06T14:54:10.286Z,1.60
2022-10-06T14:56:38.942Z,1.65
2022-10-06T14:59:07.367Z,1.88
2022-10-06T15:01:35.628Z,1.33
2022-10-06T15:04:06.958Z,2.05
2022-10-06T15:06:53.946Z,1.23
2022-10-06T15:09:21.026Z,2.70
2022-10-06T15:11:48.121Z,2.75
2022-10-06T15:14:15.343Z,2.10
2022-10-06T15:16:44.460Z,2.03
2022-10-06T15:19:12.309Z,4.00
2022-10-06T15:21:40.138Z,3.13
2022-10-06T15:24:07.939Z,3.85
2022-10-06T15:26:54.939Z,3.08
2022-10-06T15:29:21.989Z,3.25
2022-10-06T15:31:53.038Z,2.83
2022-10-06T15:34:25.051Z,2.50
2022-10-06T15:36:53.170Z,3.25
2022-10-06T15:39:21.160Z,6.63
2022-10-06T15:41:48.831Z,1.60
2022-10-06T15:44:16.214Z,3.75
2022-10-06T15:46:45.117Z,2.83
2022-10-06T15:49:14.194Z,3.20
2022-10-06T15:51:48.134Z,2.72
2022-10-06T15:54:19.070Z,3.27
2022-10-06T15:56:47.666Z,3.45
2022-10-06T15:59:15.266Z,1.85
2022-10-06T16:01:44.015Z,3.90
2022-10-06T16:04:16.246Z,3.85
2022-10-06T16:06:58.823Z,2.45
2022-10-06T16:09:28.450Z,2.60
2022-10-06T16:11:56.313Z,2.65
2022-10-06T16:14:23.342Z,3.23
2022-10-06T16:16:50.443Z,2.33
2022-10-06T16:19:18.269Z,3.45
2022-10-06T16:21:47.745Z,3.95
2022-10-06T16:24:15.001Z,6.88
2022-10-06T16:26:42.980Z,3.10
2022-10-06T16:29:10.145Z,4.13
2022-10-06T16:31:37.306Z,4.70
2022-10-06T16:34:04.494Z,4.63
2022-10-06T16:36:31.862Z,1.85
2022-10-06T16:38:58.542Z,4.97
2022-10-06T16:41:25.745Z,3.00
2022-10-06T16:43:54.237Z,4.15
2022-10-06T16:46:22.874Z,3.30
2022-10-06T16:48:51.337Z,5.13
2022-10-06T16:51:21.192Z,5.00
2022-10-06T16:53:49.456Z,8.43
2022-10-06T16:56:18.322Z,8.73
2022-10-06T16:58:46.360Z,5.50
2022-10-06T17:01:14.360Z,3.45
2022-10-06T17:03:42.309Z,2.58
2022-10-06T17:06:10.589Z,4.30
2022-10-06T17:08:38.358Z,3.80
2022-10-06T17:11:07.397Z,8.10
2022-10-06T17:13:35.149Z,7.22
2022-10-06T17:16:04.571Z,10.88
2022-10-06T17:18:31.857Z,7.22
2022-10-06T17:21:00.025Z,4.97
2022-10-06T17:23:27.960Z,4.88
2022-10-06T17:26:03.270Z,5.30
2022-10-06T17:28:30.720Z,5.97
2022-10-06T17:30:59.476Z,3.92
2022-10-06T17:33:27.885Z,2.90
2022-10-06T17:35:55.082Z,3.80
2022-10-06T17:38:22.311Z,6.03
2022-10-06T17:40:49.819Z,5.67
2022-10-06T17:43:16.987Z,4.32
2022-10-06T17:45:44.201Z,6.32
2022-10-06T17:48:12.329Z,2.90
2022-10-06T17:50:39.513Z,4.32
2022-10-06T17:53:07.012Z,4.80
2022-10-06T17:55:36.779Z,3.22
2022-10-06T17:58:04.531Z,3.27
2022-10-06T18:00:31.700Z,4.53
2022-10-06T18:03:00.083Z,7.80
2022-10-06T18:05:32.124Z,6.25
2022-10-06T18:08:00.867Z,4.15
2022-10-06T18:10:47.903Z,9.07
2022-10-06T18:13:15.033Z,5.63
2022-10-06T18:15:42.151Z,5.60
2022-10-06T18:18:09.303Z,5.75
2022-10-06T18:20:41.106Z,5.57
2022-10-06T18:23:09.543Z,6.70
2022-10-06T18:25:36.722Z,5.95
2022-10-06T18:28:03.983Z,6.65
2022-10-06T18:30:31.200Z,5.72
2022-10-06T18:35:29.812Z,5.53
2022-10-06T18:38:36.987Z,4.03
2022-10-06T18:41:07.083Z,5.00
2022-10-06T18:43:34.279Z,7.97
2022-10-06T18:46:22.317Z,8.00
2022-10-06T18:48:58.383Z,12.30
2022-10-06T18:51:27.094Z,12.88
2022-10-06T18:53:55.152Z,16.52
2022-10-06T18:56:23.752Z,13.83
2022-10-06T18:58:50.931Z,9.32
2022-10-06T19:01:18.310Z,8.25
2022-10-06T19:03:45.530Z,7.30
2022-10-06T19:06:12.346Z,6.03
2022-10-06T19:08:40.226Z,8.90
2022-10-06T19:11:33.842Z,5.82
2022-10-06T19:14:01.021Z,6.10
2022-10-06T19:16:28.167Z,4.47
2022-10-06T19:18:55.428Z,4.68
2022-10-06T19:21:22.571Z,5.15
2022-10-06T19:23:50.433Z,6.25
2022-10-06T19:26:18.729Z,13.20
2022-10-06T19:28:46.727Z,17.33
2022-10-06T19:31:20.033Z,16.40
2022-10-06T19:33:48.223Z,13.95
2022-10-06T19:36:16.921Z,10.35
2022-10-06T19:38:45.531Z,9.10
2022-10-06T19:41:32.860Z,8.17
2022-10-06T19:44:02.157Z,6.20
2022-10-06T19:46:29.391Z,6.53
2022-10-06T19:48:58.377Z,8.98
2022-10-06T19:51:25.970Z,8.82
2022-10-06T19:53:53.037Z,7.47
2022-10-06T19:56:21.121Z,7.20
2022-10-06T19:58:49.818Z,5.93
2022-10-06T20:01:17.007Z,8.63
2022-10-06T20:03:44.166Z,7.72
2022-10-06T20:06:12.763Z,7.97
2022-10-06T20:08:40.824Z,7.22
2022-10-06T20:11:09.746Z,6.70
2022-10-06T20:13:38.516Z,7.15
2022-10-06T20:16:08.408Z,8.45
2022-10-06T20:18:36.460Z,10.40
2022-10-06T20:21:03.594Z,14.88
2022-10-06T20:23:32.707Z,17.50
2022-10-06T20:26:08.067Z,16.27
2022-10-06T20:28:35.146Z,13.05
2022-10-06T20:31:02.301Z,8.98
2022-10-06T20:33:32.874Z,6.13
2022-10-06T20:36:00.877Z,4.88
2022-10-06T20:38:47.856Z,6.63
2022-10-06T20:41:16.608Z,8.95
2022-10-06T20:43:43.724Z,6.22
2022-10-06T20:46:11.061Z,7.97
2022-10-06T20:48:38.699Z,9.73
2022-10-06T20:51:14.751Z,5.78
2022-10-06T20:53:41.848Z,5.10
2022-10-06T20:56:09.279Z,9.45
2022-10-06T20:58:36.731Z,5.45
2022-10-06T21:01:06.051Z,6.97
2022-10-06T21:03:33.925Z,9.18
2022-10-06T21:06:01.111Z,6.72
2022-10-06T21:08:28.467Z,10.43
2022-10-06T21:10:56.220Z,7.55
2022-10-06T21:13:23.268Z,14.40
2022-10-06T21:15:50.456Z,6.13
2022-10-06T21:18:18.244Z,10.23
2022-10-06T21:20:54.052Z,5.88
2022-10-06T21:23:21.082Z,4.88
2022-10-06T21:25:50.464Z,7.05
2022-10-06T21:28:18.483Z,7.20
2022-10-06T21:30:45.902Z,10.10
2022-10-06T21:33:13.009Z,6.38
2022-10-06T21:35:40.200Z,10.45
2022-10-06T21:38:07.279Z,4.53
2022-10-06T21:40:36.951Z,4.70
2022-10-06T21:43:04.743Z,7.55
2022-10-06T21:45:33.129Z,6.45
2022-10-06T21:48:00.363Z,7.32
2022-10-06T21:50:27.423Z,9.93
2022-10-06T21:52:54.474Z,5.85
2022-10-06T21:55:21.498Z,4.35
2022-10-06T21:57:48.555Z,3.38
2022-10-06T22:00:15.694Z,4.82
2022-10-06T22:02:42.897Z,6.78
2022-10-06T22:05:10.087Z,5.28
2022-10-06T22:07:37.198Z,5.57
2022-10-06T22:10:04.668Z,7.57
2022-10-06T22:12:31.729Z,9.60
2022-10-06T22:14:59.137Z,5.60
2022-10-06T22:17:27.165Z,6.55
2022-10-06T22:19:54.202Z,9.63
2022-10-06T22:22:21.301Z,6.43
2022-10-06T22:24:48.455Z,8.25
2022-10-06T22:27:15.538Z,4.88
2022-10-06T22:29:42.877Z,6.45
2022-10-06T22:32:10.094Z,6.45
2022-10-06T22:34:37.937Z,9.10
2022-10-06T22:37:05.000Z,6.28
2022-10-06T22:39:32.259Z,8.45
2022-10-06T22:41:59.315Z,5.93
2022-10-06T22:44:26.388Z,6.40
2022-10-06T22:46:53.486Z,6.55
2022-10-06T22:49:20.640Z,6.60
2022-10-06T22:51:47.753Z,6.93
2022-10-06T22:54:19.486Z,4.60
2022-10-06T22:56:46.657Z,6.90
2022-10-06T22:59:14.424Z,4.13
2022-10-06T23:01:41.689Z,6.45
2022-10-06T23:04:08.761Z,6.03
2022-10-06T23:06:35.497Z,6.07
2022-10-06T23:09:03.081Z,7.68
2022-10-06T23:11:30.199Z,9.27
2022-10-06T23:13:58.419Z,6.10
2022-10-06T23:16:25.576Z,4.35
2022-10-06T23:18:52.731Z,6.70
2022-10-06T23:21:22.003Z,7.32
2022-10-06T23:23:50.324Z,7.55
2022-10-06T23:26:18.887Z,6.90
2022-10-06T23:28:46.928Z,8.48
2022-10-06T23:31:14.151Z,7.38
2022-10-06T23:33:41.256Z,7.00
2022-10-06T23:36:10.136Z,10.30
2022-10-06T23:38:37.980Z,7.50
2022-10-06T23:41:05.219Z,10.65
2022-10-06T23:43:32.603Z,10.52
2022-10-06T23:45:59.760Z,5.03
2022-10-06T23:48:26.856Z,5.80
2022-10-06T23:50:56.004Z,4.47
2022-10-06T23:53:23.098Z,6.25
2022-10-06T23:55:50.179Z,6.75
2022-10-06T23:58:17.254Z,5.45
